Time;durP1;ratioP1;P1;durP2;ratioP2;P2;SDS_P1;SDS_P2;PMS_P1;PMS_P2;Temp;Humidity;BMP_temperature;BMP_pressure;BME280_temperature;BME280_humidity;BME280_pressure;Samples;Min_cycle;Max_cycle;Signal;HPM_P1;HPM_P2
2021/04/14 00:02:07;;;;;;;4.63;1.73;;;;;;;;;;5129733;27;20285;-50
2021/04/14 00:04:32;;;;;;;3.97;1.80;;;;;;;;;;5123536;27;20137;-45
2021/04/14 00:07:01;;;;;;;3.40;1.70;;;;;;;;;;5127036;27;20049;-50
2021/04/14 00:09:27;;;;;;;4.43;1.70;;;;;;;;;;5130009;27;20102;-50
2021/04/14 00:11:52;;;;;;;3.40;2.13;;;;;;;;;;5124140;27;20557;-46
2021/04/14 00:14:18;;;;;;;3.73;1.30;;;;;;;;;;5121028;27;20470;-48
2021/04/14 00:16:43;;;;;;;3.47;0.90;;;;;;;;;;5136959;27;20026;-50
2021/04/14 00:19:08;;;;;;;4.83;1.93;;;;;;;;;;5135525;27;20050;-48
2021/04/14 00:21:34;;;;;;;4.53;1.87;;;;;;;;;;5133984;27;20374;-49
2021/04/14 00:23:59;;;;;;;7.60;1.73;;;;;;;;;;5130806;27;20465;-48
2021/04/14 00:26:24;;;;;;;6.07;1.87;;;;;;;;;;5133409;27;20110;-49
2021/04/14 00:28:50;;;;;;;6.23;2.07;;;;;;;;;;5126573;27;20314;-47
2021/04/14 00:31:15;;;;;;;4.47;1.73;;;;;;;;;;5114865;27;20024;-47
2021/04/14 00:33:42;;;;;;;2.07;0.77;;;;;;;;;;5134937;27;20026;-48
2021/04/14 00:36:08;;;;;;;5.57;1.40;;;;;;;;;;5131321;27;20058;-50
2021/04/14 00:38:33;;;;;;;4.73;1.90;;;;;;;;;;5117588;27;20355;-50
2021/04/14 00:41:10;;;;;;;4.10;1.60;;;;;;;;;;5129256;27;20026;-46
2021/04/14 00:43:36;;;;;;;2.70;1.13;;;;;;;;;;5123215;27;20035;-51
2021/04/14 00:46:01;;;;;;;5.43;1.67;;;;;;;;;;5134164;27;20026;-48
2021/04/14 00:48:27;;;;;;;3.87;1.70;;;;;;;;;;5126056;27;20443;-51
2021/04/14 00:50:52;;;;;;;2.40;1.13;;;;;;;;;;5127821;27;20031;-47
2021/04/14 00:53:18;;;;;;;3.77;1.80;;;;;;;;;;5133009;27;20023;-49
2021/04/14 00:55:44;;;;;;;3.47;1.20;;;;;;;;;;5133786;27;20023;-44
2021/04/14 00:58:09;;;;;;;4.10;1.87;;;;;;;;;;5115936;28;20421;-45
2021/04/14 01:00:36;;;;;;;6.53;1.93;;;;;;;;;;5133633;27;20026;-51
2021/04/14 01:03:02;;;;;;;3.97;1.57;;;;;;;;;;5121309;27;20108;-50
2021/04/14 01:05:29;;;;;;;3.90;1.77;;;;;;;;;;5132484;27;20087;-46
2021/04/14 01:07:54;;;;;;;4.70;1.47;;;;;;;;;;5128362;27;20034;-51
2021/04/14 01:10:20;;;;;;;3.20;1.70;;;;;;;;;;5131583;27;20023;-50
2021/04/14 01:12:46;;;;;;;3.17;1.30;;;;;;;;;;5132365;27;20019;-47
2021/04/14 01:15:13;;;;;;;5.00;2.00;;;;;;;;;;5133704;27;20088;-53
2021/04/14 01:17:38;;;;;;;5.40;2.00;;;;;;;;;;5133176;27;20027;-47
2021/04/14 01:20:04;;;;;;;4.13;1.50;;;;;;;;;;5133959;27;20106;-47
2021/04/14 01:22:29;;;;;;;4.40;1.73;;;;;;;;;;5130190;27;20031;-48
2021/04/14 01:24:54;;;;;;;5.13;1.77;;;;;;;;;;5128893;27;20122;-46
2021/04/14 01:27:20;;;;;;;5.27;1.93;;;;;;;;;;5123275;27;20103;-48
2021/04/14 01:29:45;;;;;;;5.97;1.83;;;;;;;;;;5124205;27;20011;-46
2021/04/14 01:32:10;;;;;;;5.63;1.90;;;;;;;;;;5131397;27;20442;-48
2021/04/14 01:34:35;;;;;;;5.13;1.60;;;;;;;;;;5130626;27;20431;-46
2021/04/14 01:37:00;;;;;;;6.73;1.97;;;;;;;;;;5123965;27;20482;-47
2021/04/14 01:39:26;;;;;;;7.03;3.13;;;;;;;;;;5126696;27;20039;-50
2021/04/14 01:41:51;;;;;;;7.57;2.23;;;;;;;;;;5126451;27;20545;-47
2021/04/14 01:44:16;;;;;;;3.63;1.90;;;;;;;;;;5116641;27;20394;-48
2021/04/14 01:46:42;;;;;;;3.70;2.33;;;;;;;;;;5127669;27;20428;-48
2021/04/14 01:49:09;;;;;;;4.87;2.90;;;;;;;;;;5131948;27;20379;-46
2021/04/14 01:51:34;;;;;;;2.97;2.00;;;;;;;;;;5130258;27;20076;-48
2021/04/14 01:53:59;;;;;;;5.53;3.20;;;;;;;;;;5123732;27;20015;-49
2021/04/14 01:56:25;;;;;;;6.93;2.80;;;;;;;;;;5131343;27;20026;-49
2021/04/14 01:58:50;;;;;;;6.90;3.30;;;;;;;;;;5120965;27;20102;-49
2021/04/14 02:01:15;;;;;;;5.70;2.60;;;;;;;;;;5122954;27;20094;-52
2021/04/14 02:03:41;;;;;;;7.43;2.53;;;;;;;;;;5135223;27;20067;-49
2021/04/14 02:06:08;;;;;;;5.90;2.83;;;;;;;;;;5129324;27;20164;-46
2021/04/14 02:08:33;;;;;;;6.07;2.70;;;;;;;;;;5124662;27;20020;-48
2021/04/14 02:10:58;;;;;;;6.53;2.97;;;;;;;;;;5129431;27;20019;-50
2021/04/14 02:13:25;;;;;;;5.87;2.77;;;;;;;;;;5131292;27;20072;-50
2021/04/14 02:15:51;;;;;;;5.10;2.57;;;;;;;;;;5132806;27;20027;-48
2021/04/14 02:18:17;;;;;;;3.10;1.73;;;;;;;;;;5134071;27;20023;-50
2021/04/14 02:20:42;;;;;;;7.73;3.13;;;;;;;;;;5133644;27;20034;-48
2021/04/14 02:23:13;;;;;;;5.50;2.37;;;;;;;;;;5125725;27;20065;-46
2021/04/14 02:25:39;;;;;;;4.07;2.40;;;;;;;;;;5124391;27;20022;-50
2021/04/14 02:28:05;;;;;;;3.63;2.40;;;;;;;;;;5133569;27;20086;-48
2021/04/14 02:30:30;;;;;;;7.63;2.53;;;;;;;;;;5134585;27;20022;-51
2021/04/14 02:32:55;;;;;;;5.73;2.53;;;;;;;;;;5128088;27;20030;-49
2021/04/14 02:35:22;;;;;;;5.83;2.47;;;;;;;;;;5130959;27;20030;-48
2021/04/14 02:37:47;;;;;;;6.07;2.47;;;;;;;;;;5129063;27;20039;-51
2021/04/14 02:40:13;;;;;;;4.53;2.13;;;;;;;;;;5128281;27;20098;-53
2021/04/14 02:42:40;;;;;;;5.17;2.60;;;;;;;;;;5127539;27;20015;-51
2021/04/14 02:45:06;;;;;;;5.87;2.60;;;;;;;;;;5123160;27;20100;-52
2021/04/14 02:47:31;;;;;;;5.70;2.60;;;;;;;;;;5120117;27;20474;-45
2021/04/14 02:49:56;;;;;;;3.53;1.70;;;;;;;;;;5114179;27;20130;-48
2021/04/14 02:52:21;;;;;;;7.07;2.30;;;;;;;;;;5122385;27;20049;-50
2021/04/14 02:54:48;;;;;;;4.17;2.07;;;;;;;;;;5122206;27;20373;-46
2021/04/14 02:57:13;;;;;;;3.80;1.37;;;;;;;;;;5131354;27;20023;-49
2021/04/14 02:59:38;;;;;;;6.10;2.57;;;;;;;;;;5122830;27;20016;-47
2021/04/14 03:02:04;;;;;;;8.87;3.07;;;;;;;;;;5126055;27;20102;-52
2021/04/14 03:04:29;;;;;;;6.33;2.40;;;;;;;;;;5131548;27;20019;-50
2021/04/14 03:06:54;;;;;;;2.83;1.90;;;;;;;;;;5124096;27;20054;-48
2021/04/14 03:09:19;;;;;;;5.63;2.10;;;;;;;;;;5125561;27;20042;-51
2021/04/14 03:11:45;;;;;;;5.50;2.73;;;;;;;;;;5125971;27;20148;-49
2021/04/14 03:14:10;;;;;;;4.20;2.40;;;;;;;;;;5131104;27;20047;-44
2021/04/14 03:16:35;;;;;;;7.80;3.50;;;;;;;;;;5114123;27;20066;-49
2021/04/14 03:19:00;;;;;;;4.07;1.30;;;;;;;;;;5120832;27;20019;-47
2021/04/14 03:21:25;;;;;;;4.67;2.50;;;;;;;;;;5124675;27;20019;-48
2021/04/14 03:23:51;;;;;;;7.07;2.80;;;;;;;;;;5132630;27;20030;-46
2021/04/14 03:26:16;;;;;;;3.73;2.73;;;;;;;;;;5127558;27;20421;-50
2021/04/14 03:28:41;;;;;;;8.17;3.50;;;;;;;;;;5132333;27;20598;-44
2021/04/14 03:31:08;;;;;;;3.43;1.73;;;;;;;;;;5130595;27;20054;-51
2021/04/14 03:33:34;;;;;;;3.70;1.53;;;;;;;;;;5131721;27;20072;-50
2021/04/14 03:35:59;;;;;;;4.77;2.30;;;;;;;;;;5124525;27;20019;-51
2021/04/14 03:38:24;;;;;;;4.47;1.70;;;;;;;;;;5126460;27;20437;-50
2021/04/14 03:40:49;;;;;;;7.27;2.57;;;;;;;;;;5128710;27;20106;-54
2021/04/14 03:43:14;;;;;;;6.07;2.43;;;;;;;;;;5127097;27;20055;-49
2021/04/14 03:45:43;;;;;;;5.87;2.27;;;;;;;;;;5131318;27;20054;-48
2021/04/14 03:48:09;;;;;;;4.67;2.57;;;;;;;;;;5128488;27;20127;-48
2021/04/14 03:50:35;;;;;;;7.47;3.00;;;;;;;;;;5120006;28;20023;-48
2021/04/14 03:53:07;;;;;;;5.10;2.93;;;;;;;;;;5125657;27;20017;-52
2021/04/14 03:55:33;;;;;;;6.20;2.97;;;;;;;;;;5132112;28;20037;-49
2021/04/14 03:57:58;;;;;;;5.63;3.10;;;;;;;;;;5130610;28;20455;-48
2021/04/14 04:00:25;;;;;;;8.27;4.13;;;;;;;;;;5125173;28;20024;-50
2021/04/14 04:02:50;;;;;;;9.20;2.70;;;;;;;;;;5130236;27;20022;-48
2021/04/14 04:05:16;;;;;;;4.83;2.87;;;;;;;;;;5116589;28;20011;-45
2021/04/14 04:07:41;;;;;;;4.97;2.93;;;;;;;;;;5126257;27;20038;-45
2021/04/14 04:10:07;;;;;;;4.60;2.43;;;;;;;;;;5126585;28;20429;-47
2021/04/14 04:12:33;;;;;;;8.03;3.87;;;;;;;;;;5129294;27;20075;-51
2021/04/14 04:14:58;;;;;;;7.43;4.00;;;;;;;;;;5120928;27;20102;-49
2021/04/14 04:17:24;;;;;;;6.23;3.43;;;;;;;;;;5116832;28;20533;-51
2021/04/14 04:19:49;;;;;;;8.37;4.67;;;;;;;;;;5129592;28;20022;-52
2021/04/14 04:22:18;;;;;;;8.43;4.47;;;;;;;;;;5113894;28;20027;-47
2021/04/14 04:24:43;;;;;;;10.40;5.27;;;;;;;;;;5128439;27;20020;-50
2021/04/14 04:27:08;;;;;;;10.93;5.70;;;;;;;;;;5131573;28;20034;-53
2021/04/14 04:29:34;;;;;;;9.60;4.67;;;;;;;;;;5123560;28;20019;-47
2021/04/14 04:31:59;;;;;;;10.03;6.10;;;;;;;;;;5126998;28;20015;-53
2021/04/14 04:34:24;;;;;;;9.17;3.63;;;;;;;;;;5132872;28;20019;-51
2021/04/14 04:36:50;;;;;;;11.30;6.40;;;;;;;;;;5119138;28;20032;-46
2021/04/14 04:39:16;;;;;;;10.80;6.30;;;;;;;;;;5127064;27;20032;-48
2021/04/14 04:41:41;;;;;;;11.57;7.07;;;;;;;;;;5127846;27;20027;-47
2021/04/14 04:44:06;;;;;;;11.30;6.00;;;;;;;;;;5131082;27;20662;-53
2021/04/14 04:46:31;;;;;;;12.60;5.67;;;;;;;;;;5135290;27;20055;-48
2021/04/14 04:48:56;;;;;;;10.93;6.10;;;;;;;;;;5129151;27;20025;-52
2021/04/14 04:51:22;;;;;;;10.33;5.80;;;;;;;;;;5119802;27;20126;-52
2021/04/14 04:53:47;;;;;;;15.90;6.93;;;;;;;;;;5133801;27;20029;-50
2021/04/14 04:56:12;;;;;;;15.43;8.03;;;;;;;;;;5123929;27;20048;-49
2021/04/14 04:58:37;;;;;;;8.77;5.47;;;;;;;;;;5119189;27;20384;-51
2021/04/14 05:01:03;;;;;;;11.53;7.33;;;;;;;;;;5123739;27;20031;-51
2021/04/14 05:03:29;;;;;;;10.43;5.03;;;;;;;;;;5116926;27;20066;-47
2021/04/14 05:05:55;;;;;;;10.83;6.10;;;;;;;;;;5123949;27;20046;-44
2021/04/14 05:08:20;;;;;;;15.53;7.90;;;;;;;;;;5125117;27;20473;-50
2021/04/14 05:10:45;;;;;;;11.00;6.73;;;;;;;;;;5134189;27;20075;-52
2021/04/14 05:13:10;;;;;;;10.10;6.40;;;;;;;;;;5131997;27;20067;-52
2021/04/14 05:15:38;;;;;;;11.83;5.23;;;;;;;;;;5133183;27;20085;-48
2021/04/14 05:18:04;;;;;;;13.37;6.90;;;;;;;;;;5121490;27;20497;-46
2021/04/14 05:20:29;;;;;;;12.63;6.73;;;;;;;;;;5119455;27;20023;-50
2021/04/14 05:22:55;;;;;;;13.07;7.73;;;;;;;;;;5121846;27;20026;-50
2021/04/14 05:25:21;;;;;;;15.17;7.63;;;;;;;;;;5122946;27;20011;-48
2021/04/14 05:27:47;;;;;;;10.80;6.40;;;;;;;;;;5126555;27;20023;-49
2021/04/14 05:30:13;;;;;;;8.57;5.80;;;;;;;;;;5132496;27;20466;-49
2021/04/14 05:32:38;;;;;;;12.07;5.93;;;;;;;;;;5119721;27;20019;-48
2021/04/14 05:35:04;;;;;;;9.13;5.63;;;;;;;;;;5120743;27;20019;-51
2021/04/14 05:37:29;;;;;;;14.70;6.97;;;;;;;;;;5121380;27;20058;-49
2021/04/14 05:39:54;;;;;;;15.87;7.07;;;;;;;;;;5120039;27;20046;-49
2021/04/14 05:42:20;;;;;;;15.40;7.93;;;;;;;;;;5121563;27;20359;-47
2021/04/14 05:44:45;;;;;;;16.03;8.47;;;;;;;;;;5133974;27;20121;-52
2021/04/14 05:47:10;;;;;;;15.80;8.23;;;;;;;;;;5129969;27;20036;-53
2021/04/14 05:49:36;;;;;;;22.50;9.37;;;;;;;;;;5133849;27;20038;-47
2021/04/14 05:52:01;;;;;;;16.90;8.83;;;;;;;;;;5118394;27;20053;-51
2021/04/14 05:54:26;;;;;;;17.07;8.50;;;;;;;;;;5125511;27;20149;-51
2021/04/14 05:56:51;;;;;;;14.00;7.33;;;;;;;;;;5125728;27;20063;-46
2021/04/14 05:59:18;;;;;;;19.97;9.13;;;;;;;;;;5120746;27;20051;-53
2021/04/14 06:01:44;;;;;;;20.50;9.90;;;;;;;;;;5116991;27;20081;-45
2021/04/14 06:04:09;;;;;;;15.23;6.97;;;;;;;;;;5124039;27;20419;-47
2021/04/14 06:06:34;;;;;;;17.20;6.90;;;;;;;;;;5127064;27;20035;-54
2021/04/14 06:09:00;;;;;;;16.67;7.33;;;;;;;;;;5119854;27;20068;-46
2021/04/14 06:11:25;;;;;;;13.83;6.37;;;;;;;;;;5123301;27;20023;-50
2021/04/14 06:13:50;;;;;;;7.33;3.77;;;;;;;;;;5125865;27;20106;-49
2021/04/14 06:16:16;;;;;;;16.97;7.07;;;;;;;;;;5127379;27;20462;-49
2021/04/14 06:18:41;;;;;;;16.17;7.60;;;;;;;;;;5128324;27;20688;-50
2021/04/14 06:21:07;;;;;;;19.47;7.33;;;;;;;;;;5120704;27;20413;-51
2021/04/14 06:23:32;;;;;;;15.67;6.87;;;;;;;;;;5126079;27;20451;-50
2021/04/14 06:26:15;;;;;;;15.27;5.73;;;;;;;;;;5124456;27;20011;-48
2021/04/14 06:28:40;;;;;;;15.07;5.50;;;;;;;;;;5112795;27;20379;-49
2021/04/14 06:31:07;;;;;;;10.03;5.63;;;;;;;;;;5125332;27;20106;-47
2021/04/14 06:33:35;;;;;;;13.50;5.00;;;;;;;;;;5126279;27;20044;-52
2021/04/14 06:36:00;;;;;;;13.57;4.80;;;;;;;;;;5126980;27;20113;-51
2021/04/14 06:38:29;;;;;;;11.80;5.53;;;;;;;;;;5126164;27;20114;-51
2021/04/14 06:41:33;;;;;;;9.03;4.70;;;;;;;;;;5124674;27;20454;-49
2021/04/14 06:44:13;;;;;;;14.67;4.87;;;;;;;;;;5124210;27;20034;-49
2021/04/14 06:46:40;;;;;;;9.60;5.10;;;;;;;;;;5126863;27;20473;-52
2021/04/14 06:49:14;;;;;;;14.73;5.90;;;;;;;;;;5131279;27;20061;-49
2021/04/14 06:51:42;;;;;;;13.13;4.93;;;;;;;;;;5126098;27;20087;-51
2021/04/14 06:54:33;;;;;;;10.20;4.50;;;;;;;;;;5122909;27;20042;-51
2021/04/14 06:57:00;;;;;;;10.30;4.63;;;;;;;;;;5122829;27;20030;-49
2021/04/14 06:59:27;;;;;;;15.23;4.73;;;;;;;;;;5123461;27;20056;-50
2021/04/14 07:01:59;;;;;;;10.50;3.63;;;;;;;;;;5121160;27;20023;-50
2021/04/14 07:04:31;;;;;;;11.97;4.83;;;;;;;;;;5126216;27;20027;-52
2021/04/14 07:06:59;;;;;;;15.40;4.17;;;;;;;;;;5126340;27;20031;-50
2021/04/14 07:09:33;;;;;;;8.77;4.50;;;;;;;;;;5126416;27;20035;-47
2021/04/14 07:11:59;;;;;;;12.48;4.47;;;;;;;;;;5121953;27;20102;-50
2021/04/14 07:14:25;;;;;;;12.77;3.27;;;;;;;;;;5127156;27;20114;-51
2021/04/14 07:16:50;;;;;;;10.83;3.80;;;;;;;;;;5125975;27;20115;-51
2021/04/14 07:19:24;;;;;;;11.77;3.63;;;;;;;;;;5126756;27;20015;-49
2021/04/14 07:21:53;;;;;;;18.60;4.63;;;;;;;;;;5124264;27;20037;-53
2021/04/14 07:24:18;;;;;;;9.30;5.00;;;;;;;;;;5125710;27;20490;-46
2021/04/14 07:26:50;;;;;;;17.70;4.67;;;;;;;;;;5125649;27;20049;-49
2021/04/14 07:29:34;;;;;;;5.43;2.50;;;;;;;;;;5131635;27;20015;-52
2021/04/14 07:31:59;;;;;;;12.27;1.53;;;;;;;;;;5126656;27;20017;-49
2021/04/14 07:34:34;;;;;;;11.20;2.97;;;;;;;;;;5133215;27;20015;-49
2021/04/14 07:37:08;;;;;;;4.68;2.03;;;;;;;;;;5125555;27;20189;-49
2021/04/14 07:39:52;;;;;;;11.55;3.28;;;;;;;;;;5133061;27;20038;-50
2021/04/14 07:42:24;;;;;;;8.60;3.97;;;;;;;;;;5117443;27;20023;-45
2021/04/14 07:44:50;;;;;;;11.30;3.63;;;;;;;;;;5130558;27;20076;-50
2021/04/14 07:47:17;;;;;;;11.30;4.27;;;;;;;;;;5132103;27;20374;-49
2021/04/14 07:49:42;;;;;;;9.73;4.03;;;;;;;;;;5124831;27;20027;-50
2021/04/14 07:52:09;;;;;;;9.53;4.20;;;;;;;;;;5116615;28;20043;-52
2021/04/14 07:54:42;;;;;;;8.83;3.63;;;;;;;;;;5130753;27;20106;-51
2021/04/14 07:57:08;;;;;;;12.93;4.27;;;;;;;;;;5129665;27;20031;-49
2021/04/14 07:59:36;;;;;;;4.73;1.93;;;;;;;;;;5123188;27;20119;-49
2021/04/14 08:02:03;;;;;;;8.50;4.13;;;;;;;;;;5128018;28;20397;-50
2021/04/14 08:04:36;;;;;;;11.13;3.07;;;;;;;;;;5131937;27;20075;-53
2021/04/14 08:07:10;;;;;;;13.57;3.33;;;;;;;;;;5132136;27;20038;-51
2021/04/14 08:09:46;;;;;;;9.27;3.40;;;;;;;;;;5121144;28;20016;-50
2021/04/14 08:12:11;;;;;;;11.50;3.15;;;;;;;;;;5126088;27;20035;-50
2021/04/14 08:14:39;;;;;;;7.15;2.53;;;;;;;;;;5121839;27;20016;-49
2021/04/14 08:17:16;;;;;;;9.38;3.05;;;;;;;;;;5131325;27;20186;-52
2021/04/14 08:19:41;;;;;;;7.65;2.55;;;;;;;;;;5126172;27;20034;-51
2021/04/14 08:22:19;;;;;;;6.95;1.92;;;;;;;;;;5127320;27;20027;-51
2021/04/14 08:24:47;;;;;;;7.35;2.40;;;;;;;;;;5130099;27;20031;-50
2021/04/14 08:27:15;;;;;;;6.97;1.83;;;;;;;;;;5128537;27;20027;-49
2021/04/14 08:29:40;;;;;;;11.43;2.28;;;;;;;;;;5129174;27;20035;-50
2021/04/14 08:32:10;;;;;;;8.70;2.35;;;;;;;;;;5128055;27;20023;-49
2021/04/14 08:34:36;;;;;;;5.35;1.63;;;;;;;;;;5130089;27;20081;-49
2021/04/14 08:37:07;;;;;;;3.30;1.13;;;;;;;;;;5128429;27;20370;-48
2021/04/14 08:39:35;;;;;;;5.55;1.50;;;;;;;;;;5129726;27;20026;-52
2021/04/14 08:42:10;;;;;;;6.90;1.77;;;;;;;;;;5130965;27;20019;-51
2021/04/14 08:44:36;;;;;;;10.47;1.40;;;;;;;;;;5135975;27;20026;-46
2021/04/14 08:47:09;;;;;;;8.60;1.20;;;;;;;;;;5126829;27;20020;-46
2021/04/14 08:49:35;;;;;;;13.90;1.95;;;;;;;;;;5128335;27;20085;-51
2021/04/14 08:52:01;;;;;;;1.95;0.40;;;;;;;;;;5120392;27;20046;-53
2021/04/14 08:54:28;;;;;;;2.92;0.45;;;;;;;;;;5135069;27;20370;-52
2021/04/14 08:56:54;;;;;;;9.30;1.00;;;;;;;;;;5132774;27;20027;-47
2021/04/14 08:59:19;;;;;;;7.50;1.50;;;;;;;;;;5134939;27;20020;-50
2021/04/14 09:01:45;;;;;;;7.35;1.08;;;;;;;;;;5131444;27;20047;-49
2021/04/14 09:04:11;;;;;;;3.28;0.68;;;;;;;;;;5135649;27;20072;-46
2021/04/14 09:06:38;;;;;;;5.65;0.88;;;;;;;;;;5126923;27;20031;-50
2021/04/14 09:09:04;;;;;;;3.53;0.52;;;;;;;;;;5130478;27;20421;-49
2021/04/14 09:11:30;;;;;;;3.70;0.82;;;;;;;;;;5132127;27;20256;-51
2021/04/14 09:14:08;;;;;;;8.38;0.88;;;;;;;;;;5135576;27;20519;-50
2021/04/14 09:16:36;;;;;;;5.90;0.70;;;;;;;;;;5129306;27;20119;-47
2021/04/14 09:19:08;;;;;;;3.65;0.52;;;;;;;;;;5131995;27;20019;-49
2021/04/14 09:21:42;;;;;;;6.65;0.80;;;;;;;;;;5130910;27;20023;-51
2021/04/14 09:24:18;;;;;;;3.42;0.90;;;;;;;;;;5134716;27;20656;-51
2021/04/14 09:26:51;;;;;;;6.65;0.93;;;;;;;;;;5133574;27;20492;-53
2021/04/14 09:29:25;;;;;;;5.18;0.70;;;;;;;;;;5125870;27;20016;-47
2021/04/14 09:31:52;;;;;;;7.45;1.10;;;;;;;;;;5127180;27;20012;-51
2021/04/14 09:34:29;;;;;;;6.18;1.00;;;;;;;;;;5125820;27;20024;-49
2021/04/14 09:37:04;;;;;;;7.70;1.05;;;;;;;;;;5124026;27;20022;-53
2021/04/14 09:39:31;;;;;;;6.57;1.00;;;;;;;;;;5119130;27;20016;-49
2021/04/14 09:41:57;;;;;;;7.57;1.10;;;;;;;;;;5124607;27;20477;-48
2021/04/14 09:44:36;;;;;;;8.13;1.83;;;;;;;;;;5127558;27;20026;-48
2021/04/14 09:47:13;;;;;;;9.77;1.00;;;;;;;;;;5124759;27;20369;-52
2021/04/14 09:49:41;;;;;;;7.65;1.02;;;;;;;;;;5126857;27;20033;-53
2021/04/14 09:52:20;;;;;;;4.03;0.88;;;;;;;;;;5126497;27;20133;-52
2021/04/14 09:54:46;;;;;;;4.30;1.15;;;;;;;;;;5123410;27;20049;-48
2021/04/14 09:57:18;;;;;;;4.68;0.60;;;;;;;;;;5126822;27;20031;-51
2021/04/14 09:59:44;;;;;;;4.63;0.68;;;;;;;;;;5124037;27;20030;-50
2021/04/14 10:02:13;;;;;;;2.28;0.28;;;;;;;;;;5128253;27;20027;-51
2021/04/14 10:04:39;;;;;;;4.28;0.65;;;;;;;;;;5120237;27;20493;-53
2021/04/14 10:07:07;;;;;;;5.10;0.68;;;;;;;;;;5119675;27;20123;-46
2021/04/14 10:09:36;;;;;;;8.43;0.73;;;;;;;;;;5119080;27;20090;-50
2021/04/14 10:12:27;;;;;;;4.93;1.00;;;;;;;;;;5117558;27;20124;-46
2021/04/14 10:14:54;;;;;;;6.07;0.40;;;;;;;;;;5115233;27;20031;-53
2021/04/14 10:17:24;;;;;;;5.10;0.90;;;;;;;;;;5125031;27;20070;-52
2021/04/14 10:19:58;;;;;;;4.35;0.55;;;;;;;;;;5122890;27;20133;-51
2021/04/14 10:22:26;;;;;;;4.10;0.93;;;;;;;;;;5120113;27;20028;-51
2021/04/14 10:25:05;;;;;;;1.65;0.20;;;;;;;;;;5121621;27;20153;-54
2021/04/14 10:27:30;;;;;;;3.20;0.40;;;;;;;;;;5121091;27;20030;-50
2021/04/14 10:29:59;;;;;;;3.15;0.40;;;;;;;;;;5129053;27;20023;-51
2021/04/14 10:32:24;;;;;;;5.30;0.57;;;;;;;;;;5114836;27;20011;-50
2021/04/14 10:34:51;;;;;;;3.78;0.57;;;;;;;;;;5120672;27;20024;-54
2021/04/14 10:37:24;;;;;;;2.60;0.40;;;;;;;;;;5122202;27;20323;-49
2021/04/14 10:39:50;;;;;;;3.13;0.40;;;;;;;;;;5123862;27;20027;-50
2021/04/14 10:42:20;;;;;;;2.15;0.50;;;;;;;;;;5130252;27;20531;-50
2021/04/14 10:44:46;;;;;;;3.92;0.45;;;;;;;;;;5121708;27;20019;-51
2021/04/14 10:47:22;;;;;;;3.13;0.40;;;;;;;;;;5127068;27;20504;-48
2021/04/14 10:49:48;;;;;;;3.88;0.40;;;;;;;;;;5126416;27;20015;-54
2021/04/14 10:52:22;;;;;;;2.50;0.43;;;;;;;;;;5116291;27;20415;-52
2021/04/14 10:54:49;;;;;;;7.47;1.38;;;;;;;;;;5121805;27;20561;-50
2021/04/14 10:57:20;;;;;;;1.88;0.50;;;;;;;;;;5115240;27;20139;-50
2021/04/14 10:59:47;;;;;;;3.40;0.80;;;;;;;;;;5124309;27;20027;-52
2021/04/14 11:02:17;;;;;;;3.63;1.02;;;;;;;;;;5111933;27;20030;-51
2021/04/14 11:04:43;;;;;;;4.28;0.80;;;;;;;;;;5124052;27;20034;-50
2021/04/14 11:07:18;;;;;;;3.40;0.70;;;;;;;;;;5128462;27;20027;-51
2021/04/14 11:09:44;;;;;;;3.47;0.65;;;;;;;;;;5124696;27;20098;-54
2021/04/14 11:12:14;;;;;;;2.35;0.45;;;;;;;;;;5123454;27;20484;-52
2021/04/14 11:14:40;;;;;;;5.90;0.38;;;;;;;;;;5126667;27;20517;-51
2021/04/14 11:17:06;;;;;;;2.55;0.50;;;;;;;;;;5132192;27;20482;-46
2021/04/14 11:19:31;;;;;;;4.85;0.80;;;;;;;;;;5132445;27;20027;-50
2021/04/14 11:22:14;;;;;;;2.50;0.30;;;;;;;;;;5128193;27;20027;-49
2021/04/14 11:24:44;;;;;;;3.42;0.60;;;;;;;;;;5122073;27;20039;-50
2021/04/14 11:27:14;;;;;;;5.55;0.60;;;;;;;;;;5115882;27;20027;-51
2021/04/14 11:29:39;;;;;;;3.97;0.52;;;;;;;;;;5126308;27;20027;-52
2021/04/14 11:32:15;;;;;;;2.55;0.40;;;;;;;;;;5120597;27;20029;-48
2021/04/14 11:34:40;;;;;;;2.22;0.60;;;;;;;;;;5127699;27;20399;-52
2021/04/14 11:37:17;;;;;;;7.43;0.60;;;;;;;;;;5126893;27;20041;-52
2021/04/14 11:39:58;;;;;;;3.70;0.30;;;;;;;;;;5123956;27;20019;-51
2021/04/14 11:42:25;;;;;;;2.17;0.60;;;;;;;;;;5118600;27;20106;-52
2021/04/14 11:44:51;;;;;;;2.55;0.30;;;;;;;;;;5122543;27;20027;-53
2021/04/14 11:47:22;;;;;;;1.70;0.38;;;;;;;;;;5122007;27;20027;-49
2021/04/14 11:49:48;;;;;;;3.50;0.50;;;;;;;;;;5119303;27;20011;-51
2021/04/14 11:52:20;;;;;;;2.20;0.30;;;;;;;;;;5118771;27;20050;-53
2021/04/14 11:54:45;;;;;;;3.15;0.35;;;;;;;;;;5112717;28;20475;-50
2021/04/14 11:57:29;;;;;;;3.60;0.60;;;;;;;;;;5116744;28;20110;-50
2021/04/14 12:00:13;;;;;;;1.10;0.43;;;;;;;;;;5130261;28;20096;-50
2021/04/14 12:02:39;;;;;;;1.45;0.57;;;;;;;;;;5118934;28;20465;-50
2021/04/14 12:05:06;;;;;;;2.95;0.63;;;;;;;;;;5128050;27;20023;-50
2021/04/14 12:07:31;;;;;;;0.85;0.43;;;;;;;;;;5126748;28;20106;-51
2021/04/14 12:09:56;;;;;;;4.70;0.63;;;;;;;;;;5130648;27;20122;-48
2021/04/14 12:12:22;;;;;;;2.40;0.63;;;;;;;;;;5111795;28;20027;-51
2021/04/14 12:14:47;;;;;;;3.22;0.38;;;;;;;;;;5115229;28;20020;-51
2021/04/14 12:17:13;;;;;;;3.88;0.90;;;;;;;;;;5131799;28;20026;-51
2021/04/14 12:19:38;;;;;;;4.15;0.80;;;;;;;;;;5126420;27;20038;-50
2021/04/14 12:22:04;;;;;;;5.20;0.80;;;;;;;;;;5120716;27;20058;-51
2021/04/14 12:24:30;;;;;;;3.13;0.40;;;;;;;;;;5117828;27;20031;-50
2021/04/14 12:26:55;;;;;;;3.42;0.55;;;;;;;;;;5126575;28;20027;-50
2021/04/14 12:29:20;;;;;;;2.78;0.70;;;;;;;;;;5126434;28;20016;-51
2021/04/14 12:31:46;;;;;;;2.15;0.50;;;;;;;;;;5127857;28;20128;-48
2021/04/14 12:34:11;;;;;;;3.80;0.80;;;;;;;;;;5125594;27;20034;-50
2021/04/14 12:36:37;;;;;;;3.28;0.70;;;;;;;;;;5131840;27;20027;-50
2021/04/14 12:39:03;;;;;;;3.38;0.70;;;;;;;;;;5117378;27;20058;-49
2021/04/14 12:41:29;;;;;;;3.78;0.80;;;;;;;;;;5115120;28;20047;-48
2021/04/14 12:43:54;;;;;;;3.10;0.80;;;;;;;;;;5123159;28;20027;-47
2021/04/14 12:46:20;;;;;;;3.13;0.70;;;;;;;;;;5124649;28;20131;-50
2021/04/14 12:48:46;;;;;;;2.50;0.40;;;;;;;;;;5126825;27;20031;-51
2021/04/14 12:51:14;;;;;;;1.55;0.50;;;;;;;;;;5118497;28;20431;-46
2021/04/14 12:53:45;;;;;;;2.50;0.73;;;;;;;;;;5132627;27;20098;-48
2021/04/14 12:56:17;;;;;;;3.22;0.50;;;;;;;;;;5131344;27;20064;-51
2021/04/14 12:58:44;;;;;;;3.90;0.73;;;;;;;;;;5130922;27;20464;-48
2021/04/14 13:01:10;;;;;;;2.28;0.50;;;;;;;;;;5126359;27;20552;-51
2021/04/14 13:03:48;;;;;;;2.22;0.45;;;;;;;;;;5134559;27;20027;-51
2021/04/14 13:06:19;;;;;;;1.88;0.68;;;;;;;;;;5132452;27;20105;-53
2021/04/14 13:08:45;;;;;;;2.72;0.60;;;;;;;;;;5118836;27;20418;-53
2021/04/14 13:11:14;;;;;;;3.22;0.77;;;;;;;;;;5117181;27;20411;-52
2021/04/14 13:13:39;;;;;;;1.65;0.30;;;;;;;;;;5128495;27;20042;-53
2021/04/14 13:16:08;;;;;;;2.50;0.47;;;;;;;;;;5136312;27;20463;-53
2021/04/14 13:18:35;;;;;;;2.60;0.50;;;;;;;;;;5134776;27;20007;-50
2021/04/14 13:21:11;;;;;;;1.85;0.38;;;;;;;;;;5131289;27;20064;-51
2021/04/14 13:23:40;;;;;;;2.30;0.30;;;;;;;;;;5124168;27;20023;-52
2021/04/14 13:26:16;;;;;;;2.67;0.70;;;;;;;;;;5135401;27;20019;-50
2021/04/14 13:28:55;;;;;;;2.47;0.50;;;;;;;;;;5135180;27;20060;-53
2021/04/14 13:31:33;;;;;;;2.55;0.65;;;;;;;;;;5132034;27;20099;-50
2021/04/14 13:34:27;;;;;;;1.50;0.30;;;;;;;;;;5126722;27;20026;-54
2021/04/14 13:37:10;;;;;;;1.52;0.40;;;;;;;;;;5122622;27;20496;-54
2021/04/14 13:39:36;;;;;;;1.15;0.40;;;;;;;;;;5123750;27;20493;-51
2021/04/14 13:42:06;;;;;;;2.65;0.43;;;;;;;;;;5116032;27;20016;-51
2021/04/14 13:44:53;;;;;;;3.03;0.55;;;;;;;;;;5114607;28;20352;-54
2021/04/14 13:47:24;;;;;;;1.60;0.30;;;;;;;;;;5120741;27;20023;-52
2021/04/14 13:49:51;;;;;;;5.95;1.00;;;;;;;;;;5133467;27;20019;-51
2021/04/14 13:52:25;;;;;;;2.17;0.50;;;;;;;;;;5127257;27;20517;-52
2021/04/14 13:54:51;;;;;;;2.08;0.30;;;;;;;;;;5134604;27;20023;-51
2021/04/14 13:57:20;;;;;;;1.88;0.40;;;;;;;;;;5129123;27;20034;-52
2021/04/14 13:59:52;;;;;;;3.00;0.30;;;;;;;;;;5127209;27;20035;-50
2021/04/14 14:02:27;;;;;;;2.45;0.40;;;;;;;;;;5130163;27;20027;-52
2021/04/14 14:04:53;;;;;;;2.08;0.40;;;;;;;;;;5134059;27;20023;-51
2021/04/14 14:07:24;;;;;;;2.72;0.43;;;;;;;;;;5124969;27;20038;-51
2021/04/14 14:10:00;;;;;;;2.05;0.47;;;;;;;;;;5126363;27;20102;-50
2021/04/14 14:12:31;;;;;;;2.95;0.28;;;;;;;;;;5115599;27;20470;-49
2021/04/14 14:14:59;;;;;;;1.15;0.20;;;;;;;;;;5134361;27;20541;-52
2021/04/14 14:17:26;;;;;;;1.98;0.38;;;;;;;;;;5133888;27;20027;-51
2021/04/14 14:19:52;;;;;;;3.58;0.82;;;;;;;;;;5119677;27;20474;-54
2021/04/14 14:22:20;;;;;;;2.67;0.70;;;;;;;;;;5130547;27;20056;-52
2021/04/14 14:24:45;;;;;;;2.28;0.40;;;;;;;;;;5133810;27;20019;-51
2021/04/14 14:27:11;;;;;;;1.88;0.80;;;;;;;;;;5130995;27;20030;-53
2021/04/14 14:29:37;;;;;;;2.42;0.55;;;;;;;;;;5127923;27;20023;-51
2021/04/14 14:32:04;;;;;;;3.83;0.60;;;;;;;;;;5130863;27;20019;-53
2021/04/14 14:34:30;;;;;;;3.78;0.57;;;;;;;;;;5130918;27;20028;-52
2021/04/14 14:37:00;;;;;;;2.22;0.47;;;;;;;;;;5132865;27;20462;-51
2021/04/14 14:39:36;;;;;;;2.22;0.50;;;;;;;;;;5129747;27;20071;-51
2021/04/14 14:42:07;;;;;;;1.60;0.40;;;;;;;;;;5120251;27;20035;-49
2021/04/14 14:44:37;;;;;;;2.88;0.70;;;;;;;;;;5119694;27;20015;-49
2021/04/14 14:47:03;;;;;;;1.55;0.50;;;;;;;;;;5126339;27;20023;-51